createdAt,value
2024-01-10T00:00:05.134Z,535.00
2024-01-10T00:01:05.195Z,535.00
2024-01-10T00:02:05.338Z,535.00
2024-01-10T00:03:05.323Z,532.00
2024-01-10T00:04:05.439Z,533.00
2024-01-10T00:05:05.506Z,534.00
2024-01-10T00:06:05.656Z,536.00
2024-01-10T00:07:05.541Z,537.00
2024-01-10T00:08:05.698Z,537.00
2024-01-10T00:09:05.654Z,541.00
2024-01-10T00:10:05.741Z,541.00
2024-01-10T00:11:05.945Z,539.00
2024-01-10T00:12:05.875Z,537.00
2024-01-10T00:13:05.926Z,535.00
2024-01-10T00:14:06.004Z,533.00
2024-01-10T00:15:06.075Z,533.00
2024-01-10T00:16:06.127Z,531.00
2024-01-10T00:17:06.265Z,533.00
2024-01-10T00:18:06.322Z,534.00
2024-01-10T00:19:06.383Z,536.00
2024-01-10T00:20:06.468Z,538.00
2024-01-10T00:21:06.466Z,539.00
2024-01-10T00:22:06.534Z,540.00
2024-01-10T00:23:06.767Z,537.00
2024-01-10T00:24:06.684Z,537.00
2024-01-10T00:25:06.758Z,537.00
2024-01-10T00:26:06.961Z,536.00
2024-01-10T00:27:06.906Z,537.00
2024-01-10T00:28:06.976Z,538.00
2024-01-10T00:29:07.088Z,539.00
2024-01-10T00:30:07.159Z,541.00
2024-01-10T00:31:07.165Z,541.00
2024-01-10T00:32:07.236Z,541.00
2024-01-10T00:33:07.343Z,540.00
2024-01-10T00:34:07.479Z,540.00
2024-01-10T00:35:07.506Z,540.00
2024-01-10T00:36:07.478Z,541.00
2024-01-10T00:37:07.561Z,542.00
2024-01-10T00:38:07.637Z,541.00
2024-01-10T00:39:07.653Z,539.00
2024-01-10T00:40:07.840Z,539.00
2024-01-10T00:41:07.835Z,538.00
2024-01-10T00:42:07.895Z,537.00
2024-01-10T00:43:07.921Z,536.00
2024-01-10T00:44:08.033Z,536.00
2024-01-10T00:45:08.064Z,536.00
2024-01-10T00:46:08.095Z,534.00
2024-01-10T00:47:08.297Z,533.00
2024-01-10T00:48:08.285Z,533.00
2024-01-10T00:49:08.343Z,531.00
2024-01-10T00:50:08.410Z,530.00
2024-01-10T00:51:08.399Z,531.00
2024-01-10T00:52:08.437Z,534.00
2024-01-10T00:53:08.553Z,533.00
2024-01-10T00:54:08.558Z,532.00
2024-01-10T00:55:08.598Z,531.00
2024-01-10T00:56:08.715Z,533.00
2024-01-10T00:57:08.739Z,534.00
2024-01-10T00:58:08.790Z,532.00
2024-01-10T00:59:08.904Z,531.00
2024-01-10T01:00:08.936Z,530.00
2024-01-10T01:01:09.057Z,531.00
2024-01-10T01:02:09.043Z,531.00
2024-01-10T01:03:09.094Z,532.00
2024-01-10T01:04:09.145Z,532.00
2024-01-10T01:05:09.298Z,533.00
2024-01-10T01:06:09.457Z,533.00
2024-01-10T01:07:09.353Z,530.00
2024-01-10T01:08:09.506Z,531.00
2024-01-10T01:09:09.441Z,529.00
2024-01-10T01:10:09.528Z,532.00
2024-01-10T01:11:09.603Z,529.00
2024-01-10T01:12:09.607Z,531.00
2024-01-10T01:13:09.634Z,529.00
2024-01-10T01:14:09.723Z,529.00
2024-01-10T01:15:09.715Z,531.00
2024-01-10T01:16:09.759Z,534.00
2024-01-10T01:17:09.815Z,534.00
2024-01-10T01:18:09.844Z,533.00
2024-01-10T01:19:09.971Z,535.00
2024-01-10T01:20:09.966Z,534.00
2024-01-10T01:21:09.961Z,533.00
2024-01-10T01:22:09.989Z,534.00
2024-01-10T01:23:10.014Z,534.00
2024-01-10T01:24:10.034Z,533.00
2024-01-10T01:25:10.024Z,534.00
2024-01-10T01:26:10.375Z,534.00
2024-01-10T01:27:10.156Z,535.00
2024-01-10T01:28:10.165Z,535.00
2024-01-10T01:29:10.257Z,536.00
2024-01-10T01:30:10.274Z,536.00
2024-01-10T01:31:10.328Z,536.00
2024-01-10T01:32:10.387Z,533.00
2024-01-10T01:33:10.488Z,533.00
2024-01-10T01:34:10.596Z,535.00
2024-01-10T01:35:10.406Z,533.00
2024-01-10T01:36:10.410Z,532.00
2024-01-10T01:37:10.468Z,532.00
2024-01-10T01:38:10.553Z,531.00
2024-01-10T01:39:10.554Z,532.00
2024-01-10T01:40:10.646Z,532.00
2024-01-10T01:41:10.724Z,530.00
2024-01-10T01:42:10.680Z,529.00
2024-01-10T01:43:10.736Z,529.00
2024-01-10T01:44:10.826Z,529.00
2024-01-10T01:45:10.824Z,528.00
2024-01-10T01:46:10.807Z,526.00
2024-01-10T01:47:10.874Z,527.00
2024-01-10T01:48:10.904Z,528.00
2024-01-10T01:49:10.922Z,527.00
2024-01-10T01:50:10.984Z,527.00
2024-01-10T01:51:10.797Z,527.00
2024-01-10T01:52:10.815Z,528.00
2024-01-10T01:53:10.844Z,527.00
2024-01-10T01:54:10.826Z,526.00
2024-01-10T01:55:10.848Z,526.00
2024-01-10T01:56:10.981Z,523.00
2024-01-10T01:57:10.853Z,522.00
2024-01-10T01:58:10.888Z,524.00
2024-01-10T01:59:10.973Z,524.00
2024-01-10T02:00:10.969Z,524.00
2024-01-10T02:01:12.105Z,524.00
2024-01-10T02:02:10.998Z,526.00
2024-01-10T02:03:11.644Z,522.00
2024-01-10T02:04:11.009Z,522.00
2024-01-10T02:05:11.060Z,522.00
2024-01-10T02:06:11.056Z,520.00
2024-01-10T02:07:11.009Z,518.00
2024-01-10T02:08:11.097Z,517.00
2024-01-10T02:09:11.044Z,517.00
2024-01-10T02:10:11.026Z,519.00
2024-01-10T02:11:11.148Z,523.00
2024-01-10T02:12:11.043Z,522.00
2024-01-10T02:13:11.084Z,522.00
2024-01-10T02:14:11.127Z,523.00
2024-01-10T02:15:11.090Z,521.00
2024-01-10T02:16:11.083Z,519.00
2024-01-10T02:17:11.137Z,518.00
2024-01-10T02:18:11.109Z,518.00
2024-01-10T02:19:11.092Z,519.00
2024-01-10T02:20:11.123Z,519.00
2024-01-10T02:21:11.142Z,517.00
2024-01-10T02:22:11.125Z,520.00
2024-01-10T02:23:11.191Z,522.00
2024-01-10T02:24:11.137Z,523.00
2024-01-10T02:25:11.127Z,525.00
2024-01-10T02:26:11.244Z,524.00
2024-01-10T02:27:11.181Z,523.00
2024-01-10T02:28:11.187Z,523.00
2024-01-10T02:29:11.201Z,524.00
2024-01-10T02:30:11.344Z,522.00
2024-01-10T02:31:11.356Z,523.00
2024-01-10T02:32:11.210Z,523.00
2024-01-10T02:33:11.324Z,523.00
2024-01-10T02:34:11.338Z,523.00
2024-01-10T02:35:11.218Z,522.00
2024-01-10T02:36:11.194Z,521.00
2024-01-10T02:37:11.204Z,524.00
2024-01-10T02:38:11.273Z,525.00
2024-01-10T02:39:11.216Z,526.00
2024-01-10T02:40:11.222Z,525.00
2024-01-10T02:41:11.306Z,526.00
2024-01-10T02:42:11.248Z,527.00
2024-01-10T02:43:11.252Z,527.00
2024-01-10T02:44:11.302Z,527.00
2024-01-10T02:45:11.261Z,524.00
2024-01-10T02:46:11.244Z,523.00
2024-01-10T02:47:11.319Z,521.00
2024-01-10T02:48:11.332Z,521.00
2024-01-10T02:49:11.459Z,521.00
2024-01-10T02:50:11.317Z,521.00
2024-01-10T02:51:11.395Z,522.00
2024-01-10T02:52:11.354Z,520.00
2024-01-10T02:53:11.418Z,521.00
2024-01-10T02:54:11.330Z,523.00
2024-01-10T02:55:11.353Z,522.00
2024-01-10T02:56:11.405Z,520.00
2024-01-10T02:57:11.372Z,520.00
2024-01-10T02:58:11.370Z,521.00
2024-01-10T02:59:11.427Z,522.00
2024-01-10T03:00:11.398Z,522.00
2024-01-10T03:01:11.440Z,525.00
2024-01-10T03:02:11.489Z,528.00
2024-01-10T03:03:11.452Z,532.00
2024-01-10T03:04:11.428Z,534.00
2024-01-10T03:05:11.440Z,533.00
2024-01-10T03:06:11.458Z,534.00
2024-01-10T03:07:11.429Z,535.00
2024-01-10T03:08:11.458Z,534.00
2024-01-10T03:09:11.477Z,534.00
2024-01-10T03:10:11.484Z,535.00
2024-01-10T03:11:11.553Z,535.00
2024-01-10T03:12:11.485Z,533.00
2024-01-10T03:13:11.519Z,534.00
2024-01-10T03:14:11.570Z,533.00
2024-01-10T03:15:11.516Z,531.00
2024-01-10T03:16:11.555Z,530.00
2024-01-10T03:17:11.583Z,530.00
2024-01-10T03:18:11.603Z,529.00
2024-01-10T03:19:11.635Z,529.00
2024-01-10T03:20:11.623Z,530.00
2024-01-10T03:21:11.576Z,530.00
2024-01-10T03:22:11.607Z,530.00
2024-01-10T03:23:11.647Z,531.00
2024-01-10T03:24:11.607Z,533.00
2024-01-10T03:25:11.654Z,532.00
2024-01-10T03:26:11.676Z,533.00
2024-01-10T03:27:11.656Z,533.00
2024-01-10T03:28:11.658Z,537.00
2024-01-10T03:29:11.699Z,536.00
2024-01-10T03:30:11.716Z,534.00
2024-01-10T03:31:11.707Z,533.00
2024-01-10T03:32:11.766Z,533.00
2024-01-10T03:33:11.996Z,534.00
2024-01-10T03:34:11.787Z,534.00
2024-01-10T03:35:11.856Z,535.00
2024-01-10T03:36:11.851Z,536.00
2024-01-10T03:37:11.888Z,534.00
2024-01-10T03:38:11.882Z,534.00
2024-01-10T03:39:11.888Z,534.00
2024-01-10T03:40:11.876Z,534.00
2024-01-10T03:41:11.967Z,533.00
2024-01-10T03:42:11.903Z,533.00
2024-01-10T03:43:11.939Z,531.00
2024-01-10T03:44:11.989Z,530.00
2024-01-10T03:45:11.953Z,529.00
2024-01-10T03:46:11.956Z,528.00
2024-01-10T03:47:12.000Z,527.00
2024-01-10T03:48:12.053Z,526.00
2024-01-10T03:49:12.101Z,526.00
2024-01-10T03:50:12.083Z,525.00
2024-01-10T03:51:12.069Z,526.00
2024-01-10T03:52:12.058Z,526.00
2024-01-10T03:53:12.160Z,527.00
2024-01-10T03:54:12.111Z,527.00
2024-01-10T03:55:12.104Z,526.00
2024-01-10T03:56:12.190Z,525.00
2024-01-10T03:57:12.154Z,525.00
2024-01-10T03:58:12.158Z,526.00
2024-01-10T03:59:12.159Z,525.00
2024-01-10T04:00:12.167Z,526.00
2024-01-10T04:01:12.250Z,527.00
2024-01-10T04:02:12.298Z,528.00
2024-01-10T04:03:12.314Z,528.00
2024-01-10T04:04:12.283Z,525.00
2024-01-10T04:05:12.358Z,524.00
2024-01-10T04:06:12.425Z,526.00
2024-01-10T04:07:12.346Z,528.00
2024-01-10T04:08:12.398Z,528.00
2024-01-10T04:09:12.347Z,528.00
2024-01-10T04:10:12.400Z,527.00
2024-01-10T04:11:12.538Z,527.00
2024-01-10T04:12:12.412Z,526.00
2024-01-10T04:13:12.419Z,529.00
2024-01-10T04:14:12.489Z,530.00
2024-01-10T04:15:12.471Z,527.00
2024-01-10T04:16:19.669Z,531.00
2024-01-10T04:17:19.685Z,535.00
2024-01-10T04:18:19.842Z,537.00
2024-01-10T04:19:19.644Z,540.00
2024-01-10T04:20:19.783Z,542.00
2024-01-10T04:21:19.683Z,542.00
2024-01-10T04:22:19.652Z,543.00
2024-01-10T04:23:19.743Z,541.00
2024-01-10T04:24:19.704Z,541.00
2024-01-10T04:25:19.634Z,541.00
2024-01-10T04:26:19.698Z,540.00
2024-01-10T04:27:19.662Z,537.00
2024-01-10T04:28:19.654Z,534.00
2024-01-10T04:29:19.799Z,533.00
2024-01-10T04:30:19.693Z,533.00
2024-01-10T04:31:26.853Z,547.00
2024-01-10T04:32:27.018Z,547.00
2024-01-10T04:33:26.981Z,545.00
2024-01-10T04:34:26.862Z,541.00
2024-01-10T04:35:26.990Z,537.00
2024-01-10T04:36:26.823Z,539.00
2024-01-10T04:37:26.834Z,540.00
2024-01-10T04:38:26.890Z,541.00
2024-01-10T04:39:26.841Z,541.00
2024-01-10T04:40:26.832Z,540.00
2024-01-10T04:41:26.838Z,540.00
2024-01-10T04:42:26.817Z,537.00
2024-01-10T04:43:26.839Z,536.00
2024-01-10T04:44:26.835Z,535.00
2024-01-10T04:45:26.867Z,535.00
2024-01-10T04:46:26.867Z,536.00
2024-01-10T04:47:27.012Z,537.00
2024-01-10T04:48:27.051Z,538.00
2024-01-10T04:49:26.927Z,540.00
2024-01-10T04:50:26.958Z,541.00
2024-01-10T04:51:26.962Z,542.00
2024-01-10T04:52:26.998Z,540.00
2024-01-10T04:53:27.030Z,540.00
2024-01-10T04:54:27.040Z,540.00
2024-01-10T04:55:27.049Z,541.00
2024-01-10T04:56:27.117Z,537.00
2024-01-10T04:57:27.145Z,539.00
2024-01-10T04:58:28.206Z,540.00
2024-01-10T04:59:27.231Z,540.00
2024-01-10T05:00:27.219Z,541.00
2024-01-10T05:01:27.244Z,541.00
2024-01-10T05:02:27.437Z,541.00
2024-01-10T05:03:27.380Z,540.00
2024-01-10T05:04:27.339Z,539.00
2024-01-10T05:05:27.468Z,540.00
2024-01-10T05:06:27.507Z,542.00
2024-01-10T05:07:27.566Z,540.00
2024-01-10T05:08:27.588Z,539.00
2024-01-10T05:09:27.551Z,539.00
2024-01-10T05:10:27.586Z,536.00
2024-01-10T05:11:27.622Z,536.00
2024-01-10T05:12:27.550Z,541.00
2024-01-10T05:13:27.560Z,541.00
2024-01-10T05:14:27.630Z,541.00
2024-01-10T05:15:27.613Z,542.00
2024-01-10T05:16:27.637Z,541.00
2024-01-10T05:17:27.827Z,541.00
2024-01-10T05:18:27.689Z,539.00
2024-01-10T05:19:27.778Z,536.00
2024-01-10T05:20:27.778Z,536.00
2024-01-10T05:21:27.808Z,538.00
2024-01-10T05:22:27.840Z,539.00
2024-01-10T05:23:27.899Z,540.00
2024-01-10T05:24:28.482Z,541.00
2024-01-10T05:25:27.897Z,539.00
2024-01-10T05:26:27.982Z,538.00
2024-01-10T05:27:27.989Z,535.00
2024-01-10T05:28:28.003Z,535.00
2024-01-10T05:29:28.083Z,534.00
2024-01-10T05:30:29.297Z,535.00
2024-01-10T05:31:28.125Z,534.00
2024-01-10T05:32:28.384Z,537.00
2024-01-10T05:33:28.203Z,540.00
2024-01-10T05:34:28.165Z,540.00
2024-01-10T05:35:28.244Z,537.00
2024-01-10T05:36:28.220Z,537.00
2024-01-10T05:37:28.285Z,538.00
2024-01-10T05:38:28.395Z,538.00
2024-01-10T05:39:28.315Z,537.00
2024-01-10T05:40:28.345Z,541.00
2024-01-10T05:41:28.442Z,542.00
2024-01-10T05:42:28.428Z,540.00
2024-01-10T05:43:28.447Z,540.00
2024-01-10T05:44:28.500Z,540.00
2024-01-10T05:45:28.517Z,540.00
2024-01-10T05:46:28.561Z,541.00
2024-01-10T05:47:28.700Z,541.00
2024-01-10T05:48:28.667Z,541.00
2024-01-10T05:49:28.642Z,543.00
2024-01-10T05:50:28.677Z,541.00
2024-01-10T05:51:28.722Z,541.00
2024-01-10T05:52:28.711Z,542.00
2024-01-10T05:53:28.968Z,539.00
2024-01-10T05:54:28.737Z,536.00
2024-01-10T05:55:28.816Z,537.00
2024-01-10T05:56:28.894Z,537.00
2024-01-10T05:57:28.916Z,538.00
2024-01-10T05:58:28.908Z,536.00
2024-01-10T05:59:30.058Z,538.00
2024-01-10T06:00:28.944Z,539.00
2024-01-10T06:01:28.971Z,538.00
2024-01-10T06:02:29.002Z,539.00
2024-01-10T06:03:29.057Z,540.00
2024-01-10T06:04:29.118Z,540.00
2024-01-10T06:05:29.176Z,541.00
2024-01-10T06:06:29.175Z,540.00
2024-01-10T06:07:29.120Z,538.00
2024-01-10T06:08:29.212Z,541.00
2024-01-10T06:09:29.212Z,542.00
2024-01-10T06:10:29.245Z,542.00
2024-01-10T06:11:29.277Z,542.00
2024-01-10T06:12:29.280Z,541.00
2024-01-10T06:13:34.999Z,542.00
2024-01-10T06:14:30.322Z,541.00
2024-01-10T06:15:29.328Z,543.00
2024-01-10T06:16:29.339Z,545.00
2024-01-10T06:17:29.411Z,547.00
2024-01-10T06:18:29.373Z,548.00
2024-01-10T06:19:29.365Z,548.00
2024-01-10T06:20:29.433Z,545.00
2024-01-10T06:21:29.319Z,544.00
2024-01-10T06:22:30.821Z,546.00
2024-01-10T06:23:29.380Z,546.00
2024-01-10T06:24:29.343Z,547.00
2024-01-10T06:25:29.363Z,546.00
2024-01-10T06:26:29.391Z,544.00
2024-01-10T06:27:29.353Z,544.00
2024-01-10T06:28:29.367Z,542.00
2024-01-10T06:29:29.442Z,543.00
2024-01-10T06:30:29.429Z,543.00
2024-01-10T06:31:29.350Z,542.00
2024-01-10T06:32:29.411Z,542.00
2024-01-10T06:33:29.493Z,545.00
2024-01-10T06:34:29.391Z,545.00
2024-01-10T06:35:29.415Z,544.00
2024-01-10T06:36:29.426Z,545.00
2024-01-10T06:37:29.435Z,550.00
2024-01-10T06:38:29.550Z,555.00
2024-01-10T06:39:29.525Z,555.00
2024-01-10T06:40:29.523Z,556.00
2024-01-10T06:41:29.588Z,556.00
2024-01-10T06:42:29.557Z,559.00
2024-01-10T06:43:29.596Z,578.00
2024-01-10T06:44:29.694Z,618.00
2024-01-10T06:45:29.692Z,629.00
2024-01-10T06:46:29.700Z,651.00
2024-01-10T06:47:29.782Z,690.00
2024-01-10T06:48:29.753Z,688.00
2024-01-10T06:49:29.787Z,699.00
2024-01-10T06:50:29.850Z,751.00
2024-01-10T06:51:29.844Z,755.00
2024-01-10T06:52:29.867Z,786.00
2024-01-10T06:53:29.961Z,799.00
2024-01-10T06:54:29.912Z,842.00
2024-01-10T06:55:29.934Z,893.00
2024-01-10T06:56:29.986Z,924.00
2024-01-10T06:57:30.016Z,924.00
2024-01-10T06:58:30.060Z,923.00
2024-01-10T06:59:30.081Z,927.00
2024-01-10T07:00:30.077Z,937.00
2024-01-10T07:01:30.153Z,955.00
2024-01-10T07:02:30.283Z,968.00
2024-01-10T07:03:30.291Z,980.00
2024-01-10T07:04:30.352Z,992.00
2024-01-10T07:05:30.418Z,1031.00
2024-01-10T07:06:30.524Z,1036.00
2024-01-10T07:07:30.452Z,1045.00
2024-01-10T07:08:30.504Z,1055.00
2024-01-10T07:09:30.512Z,1065.00
2024-01-10T07:10:30.542Z,1070.00
2024-01-10T07:11:30.617Z,1078.00
2024-01-10T07:12:30.584Z,1089.00
2024-01-10T07:13:30.642Z,1100.00
2024-01-10T07:14:30.679Z,1187.00
2024-01-10T07:15:30.689Z,1217.00
2024-01-10T07:16:31.768Z,1196.00
2024-01-10T07:17:30.833Z,1189.00
2024-01-10T07:18:30.827Z,1189.00
2024-01-10T07:19:30.761Z,1190.00
2024-01-10T07:20:30.812Z,1196.00
2024-01-10T07:21:30.802Z,1205.00
2024-01-10T07:22:30.834Z,1214.00
2024-01-10T07:23:30.875Z,1227.00
2024-01-10T07:24:30.798Z,1246.00
2024-01-10T07:25:30.918Z,1258.00
2024-01-10T07:26:30.937Z,1264.00
2024-01-10T07:27:30.934Z,1268.00
2024-01-10T07:28:30.990Z,1273.00
2024-01-10T07:29:31.011Z,1285.00
2024-01-10T07:30:31.028Z,1290.00
2024-01-10T07:31:31.066Z,1302.00
2024-01-10T07:32:31.211Z,1311.00
2024-01-10T07:33:31.213Z,1321.00
2024-01-10T07:34:31.357Z,1327.00
2024-01-10T07:35:31.381Z,1332.00
2024-01-10T07:36:31.332Z,1342.00
2024-01-10T07:37:31.428Z,1346.00
2024-01-10T07:38:31.576Z,1340.00
2024-01-10T07:39:31.544Z,1337.00
2024-01-10T07:40:31.619Z,1334.00
2024-01-10T07:41:31.773Z,1331.00
2024-01-10T07:42:31.705Z,1327.00
2024-01-10T07:43:31.764Z,1315.00
2024-01-10T07:44:31.873Z,1305.00
2024-01-10T07:45:31.948Z,1304.00
2024-01-10T07:46:31.957Z,1294.00
2024-01-10T07:47:32.019Z,1290.00
2024-01-10T07:48:32.184Z,1288.00
2024-01-10T07:49:32.101Z,1573.00
2024-01-10T07:50:32.251Z,1264.00
2024-01-10T07:51:32.308Z,1229.00
2024-01-10T07:52:32.325Z,1231.00
2024-01-10T07:53:32.412Z,1241.00
2024-01-10T07:54:32.465Z,1248.00
2024-01-10T07:55:32.507Z,1247.00
2024-01-10T07:56:32.541Z,1248.00
2024-01-10T07:57:32.600Z,1254.00
2024-01-10T07:58:32.649Z,1257.00
2024-01-10T07:59:32.748Z,1254.00
2024-01-10T08:00:32.782Z,1251.00
2024-01-10T08:01:32.838Z,1247.00
2024-01-10T08:02:32.950Z,1250.00
2024-01-10T08:03:33.078Z,1251.00
2024-01-10T08:04:33.014Z,1248.00
2024-01-10T08:05:33.272Z,1245.00
2024-01-10T08:06:34.247Z,1244.00
2024-01-10T08:07:33.187Z,1240.00
2024-01-10T08:08:33.272Z,1237.00
2024-01-10T08:09:33.288Z,1236.00
2024-01-10T08:10:33.370Z,1239.00
2024-01-10T08:11:33.458Z,1242.00
2024-01-10T08:12:33.455Z,1246.00
2024-01-10T08:13:33.492Z,1248.00
2024-01-10T08:14:33.532Z,1247.00
2024-01-10T08:15:33.624Z,1250.00
2024-01-10T08:16:33.784Z,1252.00
2024-01-10T08:17:33.889Z,1251.00
2024-01-10T08:18:33.836Z,1250.00
2024-01-10T08:19:33.806Z,1242.00
2024-01-10T08:20:33.910Z,1237.00
2024-01-10T08:21:33.936Z,1231.00
2024-01-10T08:22:33.941Z,1227.00
2024-01-10T08:23:33.976Z,1227.00
2024-01-10T08:24:34.040Z,1223.00
2024-01-10T08:25:34.071Z,1223.00
2024-01-10T08:26:34.196Z,1222.00
2024-01-10T08:27:34.141Z,1226.00
2024-01-10T08:28:34.175Z,1228.00
2024-01-10T08:29:34.252Z,1230.00
2024-01-10T08:30:34.318Z,1233.00
2024-01-10T08:31:34.318Z,1234.00
2024-01-10T08:32:34.451Z,1241.00
2024-01-10T08:33:34.498Z,1243.00
2024-01-10T08:34:34.460Z,1252.00
2024-01-10T08:35:34.491Z,1255.00
2024-01-10T08:36:34.473Z,1254.00
2024-01-10T08:37:34.508Z,1251.00
2024-01-10T08:38:34.687Z,1252.00
2024-01-10T08:39:34.560Z,1253.00
2024-01-10T08:40:36.690Z,1251.00
2024-01-10T08:41:34.699Z,1314.00
2024-01-10T08:42:34.687Z,1378.00
2024-01-10T08:43:34.750Z,1368.00
2024-01-10T08:44:34.792Z,1333.00
2024-01-10T08:45:34.836Z,1280.00
2024-01-10T08:46:34.901Z,1253.00
2024-01-10T08:47:34.953Z,1212.00
2024-01-10T08:48:35.050Z,1184.00
2024-01-10T08:49:34.955Z,1166.00
2024-01-10T08:50:35.047Z,1128.00
2024-01-10T08:51:35.038Z,1108.00
2024-01-10T08:52:35.108Z,1091.00
2024-01-10T08:53:35.225Z,1069.00
2024-01-10T08:54:35.213Z,1058.00
2024-01-10T08:55:35.405Z,1040.00
2024-01-10T08:56:35.315Z,1020.00
2024-01-10T08:57:35.392Z,996.00
2024-01-10T08:58:35.471Z,977.00
2024-01-10T08:59:35.603Z,959.00
2024-01-10T09:00:35.731Z,944.00
2024-01-10T09:01:35.611Z,931.00
2024-01-10T09:02:35.684Z,918.00
2024-01-10T09:03:35.823Z,898.00
2024-01-10T09:04:38.179Z,878.00
2024-01-10T09:05:36.113Z,865.00
2024-01-10T09:06:36.190Z,859.00
2024-01-10T09:07:36.225Z,854.00
2024-01-10T09:08:36.344Z,848.00
2024-01-10T09:09:36.353Z,842.00
2024-01-10T09:10:36.420Z,836.00
2024-01-10T09:11:39.965Z,827.00
2024-01-10T09:12:37.497Z,821.00
2024-01-10T09:13:36.444Z,816.00
2024-01-10T09:14:36.511Z,814.00
2024-01-10T09:15:36.474Z,809.00
2024-01-10T09:16:36.469Z,808.00
2024-01-10T09:17:36.510Z,808.00
2024-01-10T09:18:36.617Z,809.00
2024-01-10T09:19:36.507Z,809.00
2024-01-10T09:20:36.552Z,807.00
2024-01-10T09:21:36.450Z,807.00
2024-01-10T09:22:36.470Z,808.00
2024-01-10T09:23:36.488Z,804.00
2024-01-10T09:24:36.496Z,803.00
2024-01-10T09:25:36.466Z,800.00
2024-01-10T09:26:36.466Z,795.00
2024-01-10T09:27:36.566Z,792.00
2024-01-10T09:28:36.482Z,796.00
2024-01-10T09:29:36.454Z,793.00
2024-01-10T09:30:38.338Z,790.00
2024-01-10T09:31:36.472Z,788.00
2024-01-10T09:32:36.578Z,783.00
2024-01-10T09:33:36.558Z,779.00
2024-01-10T09:34:36.541Z,776.00
2024-01-10T09:35:36.619Z,775.00
2024-01-10T09:36:36.493Z,772.00
2024-01-10T09:37:36.474Z,767.00
2024-01-10T09:38:36.487Z,762.00
2024-01-10T09:39:36.512Z,758.00
2024-01-10T09:40:36.509Z,758.00
2024-01-10T09:41:36.560Z,756.00
2024-01-10T09:42:36.501Z,752.00
2024-01-10T09:43:36.604Z,749.00
2024-01-10T09:44:36.478Z,746.00
2024-01-10T09:45:36.486Z,743.00
2024-01-10T09:46:36.514Z,741.00
2024-01-10T09:47:36.580Z,739.00
2024-01-10T09:48:36.723Z,748.00
2024-01-10T09:49:36.886Z,757.00
2024-01-10T09:50:36.560Z,812.00
2024-01-10T09:51:36.505Z,818.00
2024-01-10T09:52:36.529Z,823.00
2024-01-10T09:53:36.555Z,828.00
2024-01-10T09:54:36.479Z,878.00
2024-01-10T09:55:36.516Z,896.00
2024-01-10T09:56:36.501Z,894.00
2024-01-10T09:57:36.512Z,901.00
2024-01-10T09:58:36.525Z,908.00
2024-01-10T09:59:36.537Z,914.00
2024-01-10T10:00:37.332Z,921.00
2024-01-10T10:01:36.501Z,931.00
2024-01-10T10:02:36.690Z,943.00
2024-01-10T10:03:36.585Z,954.00
2024-01-10T10:04:36.557Z,964.00
2024-01-10T10:05:36.696Z,968.00
2024-01-10T10:06:36.746Z,972.00
2024-01-10T10:07:36.567Z,979.00
2024-01-10T10:08:36.595Z,987.00
2024-01-10T10:09:36.524Z,990.00
2024-01-10T10:10:36.533Z,993.00
2024-01-10T10:11:36.640Z,1001.00
2024-01-10T10:12:36.527Z,1009.00
2024-01-10T10:13:36.529Z,1013.00
2024-01-10T10:14:36.612Z,1018.00
2024-01-10T10:15:36.553Z,1025.00
2024-01-10T10:16:36.612Z,1031.00
2024-01-10T10:17:36.639Z,1039.00
2024-01-10T10:18:36.631Z,1047.00
2024-01-10T10:19:41.124Z,1048.00
2024-01-10T10:20:37.654Z,1051.00
2024-01-10T10:21:36.583Z,1055.00
2024-01-10T10:22:36.546Z,1064.00
2024-01-10T10:23:36.542Z,1068.00
2024-01-10T10:24:36.601Z,1068.00
2024-01-10T10:25:36.751Z,1071.00
2024-01-10T10:26:36.598Z,1073.00
2024-01-10T10:27:36.559Z,1091.00
2024-01-10T10:28:36.686Z,1096.00
2024-01-10T10:29:36.572Z,1100.00
2024-01-10T10:30:36.631Z,1106.00
2024-01-10T10:31:36.540Z,1106.00
2024-01-10T10:32:36.691Z,1110.00
2024-01-10T10:33:36.684Z,1114.00
2024-01-10T10:34:36.671Z,1122.00
2024-01-10T10:35:39.848Z,1124.00
2024-01-10T10:36:37.586Z,1122.00
2024-01-10T10:37:36.558Z,1121.00
2024-01-10T10:38:37.301Z,1125.00
2024-01-10T10:39:36.642Z,1127.00
2024-01-10T10:40:36.547Z,1137.00
2024-01-10T10:41:36.710Z,1145.00
2024-01-10T10:42:36.561Z,1183.00
2024-01-10T10:43:36.580Z,1176.00
2024-01-10T10:44:36.635Z,1190.00
2024-01-10T10:45:36.569Z,1246.00
2024-01-10T10:46:36.600Z,1254.00
2024-01-10T10:47:36.643Z,1260.00
2024-01-10T10:48:36.754Z,1270.00
2024-01-10T10:49:36.726Z,1278.00
2024-01-10T10:50:36.689Z,1273.00
2024-01-10T10:51:36.586Z,1265.00
2024-01-10T10:52:36.597Z,1263.00
2024-01-10T10:53:36.648Z,1257.00
2024-01-10T10:54:36.624Z,1253.00
2024-01-10T10:55:36.717Z,1249.00
2024-01-10T10:56:36.763Z,1245.00
2024-01-10T10:57:36.794Z,1240.00
2024-01-10T10:58:36.848Z,1236.00
2024-01-10T10:59:36.910Z,1236.00
2024-01-10T11:00:37.031Z,1240.00
2024-01-10T11:01:37.064Z,1243.00
2024-01-10T11:02:37.184Z,1244.00
2024-01-10T11:03:37.244Z,1244.00
2024-01-10T11:04:37.487Z,1243.00
2024-01-10T11:05:37.521Z,1234.00
2024-01-10T11:06:37.517Z,1214.00
2024-01-10T11:07:37.471Z,1207.00
2024-01-10T11:08:37.682Z,1193.00
2024-01-10T11:09:37.568Z,1177.00
2024-01-10T11:10:37.628Z,1168.00
2024-01-10T11:11:37.655Z,1157.00
2024-01-10T11:12:37.722Z,1150.00
2024-01-10T11:13:37.767Z,1145.00
2024-01-10T11:14:38.024Z,1139.00
2024-01-10T11:15:37.833Z,1138.00
2024-01-10T11:16:37.877Z,1129.00
2024-01-10T11:17:37.968Z,1119.00
2024-01-10T11:18:37.978Z,1111.00
2024-01-10T11:19:37.966Z,1108.00
2024-01-10T11:20:38.212Z,1105.00
2024-01-10T11:21:38.067Z,1097.00
2024-01-10T11:22:38.057Z,1095.00
2024-01-10T11:23:38.107Z,1091.00
2024-01-10T11:24:38.155Z,1086.00
2024-01-10T11:25:38.183Z,1087.00
2024-01-10T11:26:38.191Z,1086.00
2024-01-10T11:27:38.229Z,1082.00
2024-01-10T11:28:39.241Z,1079.00
2024-01-10T11:29:38.271Z,1078.00
2024-01-10T11:30:38.288Z,1077.00
2024-01-10T11:31:38.274Z,1075.00
2024-01-10T11:32:38.396Z,1071.00
2024-01-10T11:33:38.362Z,1069.00
2024-01-10T11:34:38.347Z,1068.00
2024-01-10T11:35:38.354Z,1069.00
2024-01-10T11:36:38.326Z,1060.00
2024-01-10T11:37:38.371Z,1048.00
2024-01-10T11:38:38.366Z,1034.00
2024-01-10T11:39:38.386Z,986.00
2024-01-10T11:40:38.372Z,978.00
2024-01-10T11:41:38.685Z,965.00
2024-01-10T11:42:38.433Z,952.00
2024-01-10T11:43:38.478Z,940.00
2024-01-10T11:44:38.511Z,929.00
2024-01-10T11:45:38.493Z,918.00
2024-01-10T11:46:38.534Z,908.00
2024-01-10T11:47:38.716Z,902.00
2024-01-10T11:48:38.709Z,887.00
2024-01-10T11:49:38.676Z,876.00
2024-01-10T11:50:38.676Z,867.00
2024-01-10T11:51:38.704Z,856.00
2024-01-10T11:52:38.731Z,846.00
2024-01-10T11:53:38.764Z,841.00
2024-01-10T11:54:38.816Z,834.00
2024-01-10T11:55:38.825Z,828.00
2024-01-10T11:56:43.180Z,828.00
2024-01-10T11:57:38.896Z,823.00
2024-01-10T11:58:38.870Z,821.00
2024-01-10T11:59:38.896Z,821.00
2024-01-10T12:00:38.975Z,816.00
2024-01-10T12:01:38.880Z,812.00
2024-01-10T12:02:39.061Z,812.00
2024-01-10T12:03:51.215Z,810.00
2024-01-10T12:04:46.432Z,809.00
2024-01-10T12:05:40.033Z,807.00
2024-01-10T12:06:39.075Z,809.00
2024-01-10T12:07:38.938Z,810.00
2024-01-10T12:08:38.926Z,808.00
2024-01-10T12:09:38.914Z,805.00
2024-01-10T12:10:38.923Z,800.00
2024-01-10T12:11:38.913Z,798.00
2024-01-10T12:12:38.899Z,796.00
2024-01-10T12:13:38.924Z,791.00
2024-01-10T12:14:38.919Z,789.00
2024-01-10T12:15:39.608Z,788.00
2024-01-10T12:16:38.951Z,787.00
2024-01-10T12:17:38.923Z,786.00
2024-01-10T12:18:39.019Z,782.00
2024-01-10T12:19:39.142Z,783.00
2024-01-10T12:20:38.931Z,784.00
2024-01-10T12:21:38.973Z,785.00
2024-01-10T12:22:38.942Z,785.00